OTBH/IUD METAR and TAF weather

Enter ICAO airport designator
Station Type Date Time Source
OTBH METAR 2021/07/24 20:56 UTC NOAA

OTBH 242056Z AUTO 10004KT 9999 CLR 35/27 A2944 RMK AO2 SLP970 T03490267 404490323 57017 $


Station Type Date Time Source
OTBH Decoded METAR 2021/07/24 20:56 UTC NOAA

Station name not available
Jul 24, 2021 - 04:56 PM EDT / 2021.07.24 2056 UTC
Wind: from the E (100 degrees) at 5 MPH (4 KT):0
Visibility: greater than 7 mile(s):0
Sky conditions: clear
Temperature: 94.8 F (34.9 C)
Heat index: 114.3 F (45.7 C):1
Dew Point: 80.1 F (26.7 C)
Relative Humidity: 62%
Pressure (altimeter): 29.44 in. Hg (996 hPa)
Pressure tendency: 0.05 inches (1.7 hPa) lower than three hours ago
ob: OTBH 242056Z AUTO 10004KT 9999 CLR 35/27 A2944 RMK AO2 SLP970 T03490267 404490323 57017
cycle: 21

Station Type Date Time Source
OTBH TAF 2021/07/24 16:15 UTC NOAA

TAF TAF OTBH 241600Z 2416/2522 09009KT 9999 SKC QNH2942INS
BECMG 2417/2418 VRB05KT 8000 HZ SCT150 QNH2943INS
TEMPO 2500/2504 5000 HZ
BECMG 2504/2505 34009KT 9999 NSW FEW180 QNH2948INS
BECMG 2510/2511 03012G18KT 9999 SKC QNH2944INS TX45/2510Z TN32/2502Z

Example: see airport list